createdAt,value
2019-05-28T00:00:22.896Z,25.32
2019-05-28T00:01:21.971Z,25.21
2019-05-28T00:02:21.954Z,25.28
2019-05-28T00:03:22.009Z,25.27
2019-05-28T00:04:21.989Z,25.30
2019-05-28T00:05:21.911Z,25.32
2019-05-28T00:06:21.838Z,25.43
2019-05-28T00:07:21.923Z,25.33
2019-05-28T00:08:21.910Z,25.20
2019-05-28T00:09:21.850Z,25.32
2019-05-28T00:10:21.888Z,25.32
2019-05-28T00:11:21.880Z,25.18
2019-05-28T00:12:21.877Z,25.38
2019-05-28T00:13:21.888Z,25.15
2019-05-28T00:14:21.860Z,25.32
2019-05-28T00:15:21.854Z,25.27
2019-05-28T00:16:21.844Z,25.28
2019-05-28T00:17:21.854Z,25.28
2019-05-28T00:18:21.847Z,25.30
2019-05-28T00:19:21.758Z,25.24
2019-05-28T00:20:21.818Z,25.30
2019-05-28T00:21:21.823Z,25.21
2019-05-28T00:22:21.772Z,25.24
2019-05-28T00:23:21.808Z,25.35
2019-05-28T00:24:21.826Z,25.28
2019-05-28T00:25:25.068Z,25.21
2019-05-28T00:26:22.776Z,25.23
2019-05-28T00:27:21.787Z,25.21
2019-05-28T00:28:21.741Z,25.30
2019-05-28T00:29:21.693Z,25.20
2019-05-28T00:30:21.669Z,25.25
2019-05-28T00:31:21.742Z,25.24
2019-05-28T00:32:21.746Z,25.24
2019-05-28T00:33:21.725Z,25.27
2019-05-28T00:34:21.760Z,25.24
2019-05-28T00:35:21.733Z,25.17
2019-05-28T00:36:21.660Z,25.27
2019-05-28T00:37:21.699Z,25.25
2019-05-28T00:38:21.683Z,25.20
2019-05-28T00:39:21.714Z,25.24
2019-05-28T00:40:21.681Z,25.28
2019-05-28T00:41:21.680Z,25.28
2019-05-28T00:42:21.638Z,25.27
2019-05-28T00:43:27.768Z,25.13
2019-05-28T00:44:21.605Z,25.21
2019-05-28T00:45:21.618Z,25.20
2019-05-28T00:46:21.641Z,25.14
2019-05-28T00:47:21.617Z,25.24
2019-05-28T00:48:21.529Z,25.23
2019-05-28T00:49:21.630Z,25.17
2019-05-28T00:50:21.547Z,25.21
2019-05-28T00:51:21.515Z,25.18
2019-05-28T00:52:21.569Z,25.17
2019-05-28T00:53:21.503Z,25.25
2019-05-28T00:54:21.599Z,25.18
2019-05-28T00:55:21.555Z,25.27
2019-05-28T00:56:21.469Z,25.25
2019-05-28T00:57:21.534Z,25.24
2019-05-28T00:58:21.543Z,25.18
2019-05-28T00:59:21.543Z,25.20
2019-05-28T01:00:36.146Z,25.27
2019-05-28T01:01:22.463Z,25.20
2019-05-28T01:02:21.512Z,25.21
2019-05-28T01:03:21.494Z,25.24
2019-05-28T01:04:21.541Z,25.24
2019-05-28T01:05:21.522Z,25.24
2019-05-28T01:06:21.485Z,25.20
2019-05-28T01:07:21.391Z,25.17
2019-05-28T01:08:21.533Z,25.28
2019-05-28T01:09:21.457Z,25.20
2019-05-28T01:10:21.390Z,25.24
2019-05-28T01:11:21.443Z,25.18
2019-05-28T01:12:21.436Z,25.18
2019-05-28T01:13:21.437Z,25.20
2019-05-28T01:14:21.340Z,25.18
2019-05-28T01:15:21.382Z,25.27
2019-05-28T01:16:21.431Z,25.17
2019-05-28T01:17:21.436Z,25.18
2019-05-28T01:18:21.419Z,25.17
2019-05-28T01:19:21.422Z,25.13
2019-05-28T01:20:21.389Z,25.27
2019-05-28T01:21:21.403Z,25.21
2019-05-28T01:22:21.307Z,25.24
2019-05-28T01:23:21.296Z,25.21
2019-05-28T01:24:21.364Z,25.23
2019-05-28T01:25:21.324Z,25.17
2019-05-28T01:26:21.358Z,25.21
2019-05-28T01:27:21.322Z,25.21
2019-05-28T01:28:21.258Z,25.17
2019-05-28T01:29:21.267Z,25.20
2019-05-28T01:30:21.266Z,25.20
2019-05-28T01:31:21.384Z,25.20
2019-05-28T01:32:21.239Z,25.20
2019-05-28T01:33:21.313Z,25.14
2019-05-28T01:34:21.256Z,25.18
2019-05-28T01:35:21.332Z,25.17
2019-05-28T01:36:21.288Z,25.18
2019-05-28T01:37:21.212Z,25.21
2019-05-28T01:38:21.289Z,25.15
2019-05-28T01:39:21.277Z,25.21
2019-05-28T01:40:23.351Z,25.24
2019-05-28T01:41:21.245Z,25.25
2019-05-28T01:42:21.240Z,25.17
2019-05-28T01:43:21.245Z,25.17
2019-05-28T01:44:21.245Z,25.17
2019-05-28T01:45:21.230Z,25.20
2019-05-28T01:46:21.209Z,25.20
2019-05-28T01:47:21.208Z,25.18
2019-05-28T01:48:21.136Z,25.23
2019-05-28T01:49:21.185Z,25.20
2019-05-28T01:50:21.250Z,25.21
2019-05-28T01:51:21.164Z,25.10
2019-05-28T01:52:21.183Z,25.17
2019-05-28T01:53:21.118Z,25.20
2019-05-28T01:54:21.213Z,25.24
2019-05-28T01:55:21.199Z,25.14
2019-05-28T01:56:21.136Z,25.20
2019-05-28T01:57:21.137Z,25.14
2019-05-28T01:58:21.143Z,25.23
2019-05-28T01:59:21.121Z,25.15
2019-05-28T02:00:21.152Z,25.15
2019-05-28T02:01:21.106Z,25.13
2019-05-28T02:02:21.100Z,25.21
2019-05-28T02:03:20.992Z,25.05
2019-05-28T02:04:21.075Z,25.15
2019-05-28T02:05:21.003Z,25.23
2019-05-28T02:06:21.102Z,25.21
2019-05-28T02:07:21.031Z,25.13
2019-05-28T02:08:21.036Z,25.18
2019-05-28T02:09:20.963Z,25.06
2019-05-28T02:10:21.036Z,25.21
2019-05-28T02:11:21.026Z,25.13
2019-05-28T02:12:20.924Z,25.21
2019-05-28T02:13:21.049Z,25.08
2019-05-28T02:14:20.996Z,25.13
2019-05-28T02:15:20.961Z,25.17
2019-05-28T02:16:20.915Z,25.15
2019-05-28T02:17:20.979Z,25.14
2019-05-28T02:18:20.975Z,25.17
2019-05-28T02:19:20.964Z,25.10
2019-05-28T02:20:20.963Z,25.08
2019-05-28T02:21:20.906Z,25.21
2019-05-28T02:22:20.943Z,25.09
2019-05-28T02:23:20.890Z,25.18
2019-05-28T02:24:20.936Z,25.15
2019-05-28T02:25:20.923Z,25.08
2019-05-28T02:26:20.908Z,25.10
2019-05-28T02:27:20.845Z,25.08
2019-05-28T02:28:20.867Z,25.06
2019-05-28T02:29:20.800Z,25.02
2019-05-28T02:30:20.818Z,25.09
2019-05-28T02:31:27.868Z,25.10
2019-05-28T02:32:21.805Z,25.10
2019-05-28T02:33:26.992Z,25.02
2019-05-28T02:34:20.765Z,25.08
2019-05-28T02:35:20.880Z,25.03
2019-05-28T02:36:20.922Z,25.09
2019-05-28T02:37:20.872Z,25.14
2019-05-28T02:38:20.817Z,25.14
2019-05-28T02:39:20.833Z,25.09
2019-05-28T02:40:20.886Z,25.13
2019-05-28T02:41:20.869Z,25.10
2019-05-28T02:42:20.841Z,25.18
2019-05-28T02:43:20.831Z,25.13
2019-05-28T02:44:20.875Z,25.03
2019-05-28T02:45:20.733Z,25.05
2019-05-28T02:46:20.838Z,25.13
2019-05-28T02:47:20.798Z,25.09
2019-05-28T02:48:20.759Z,25.05
2019-05-28T02:49:20.778Z,25.14
2019-05-28T02:50:20.773Z,25.06
2019-05-28T02:51:20.734Z,25.17
2019-05-28T02:52:20.734Z,25.09
2019-05-28T02:53:20.798Z,25.02
2019-05-28T02:54:20.784Z,25.09
2019-05-28T02:55:20.699Z,25.13
2019-05-28T02:56:20.681Z,25.09
2019-05-28T02:57:20.785Z,25.15
2019-05-28T02:58:20.757Z,25.03
2019-05-28T02:59:20.720Z,25.13
2019-05-28T14:46:49.270Z,24.53
2019-05-28T14:47:49.273Z,24.55
2019-05-28T14:49:24.805Z,24.60
2019-05-28T14:50:22.922Z,24.50
2019-05-28T14:51:22.917Z,24.55
2019-05-28T14:52:22.913Z,24.58
2019-05-28T14:53:22.899Z,24.57
2019-05-28T14:54:22.894Z,24.62
2019-05-28T14:55:23.113Z,24.67
2019-05-28T14:56:23.069Z,24.55
2019-05-28T14:57:22.993Z,24.64
2019-05-28T14:58:23.157Z,24.68
2019-05-28T14:59:23.053Z,24.71
2019-05-28T15:00:23.086Z,24.65
2019-05-28T15:01:23.044Z,24.68
2019-05-28T15:02:23.049Z,24.67
2019-05-28T15:03:23.051Z,24.77
2019-05-28T15:04:23.030Z,24.81
2019-05-28T15:05:23.016Z,24.87
2019-05-28T15:06:23.049Z,24.91
2019-05-28T15:07:22.919Z,24.98
2019-05-28T15:08:23.007Z,24.98
2019-05-28T15:09:23.005Z,24.99
2019-05-28T15:10:22.895Z,24.93
2019-05-28T15:11:23.006Z,25.08
2019-05-28T15:12:22.937Z,25.02
2019-05-28T15:13:22.889Z,24.99
2019-05-28T15:14:22.875Z,25.09
2019-05-28T15:15:35.474Z,25.18
2019-05-28T15:16:23.976Z,25.15
2019-05-28T15:17:26.486Z,25.09
2019-05-28T15:18:22.910Z,25.15
2019-05-28T15:19:22.906Z,25.27
2019-05-28T15:20:22.911Z,25.27
2019-05-28T15:21:22.907Z,25.25
2019-05-28T15:22:22.878Z,25.21
2019-05-28T15:23:22.883Z,25.35
2019-05-28T15:24:22.868Z,25.28
2019-05-28T15:25:22.864Z,25.38
2019-05-28T15:26:22.805Z,25.38
2019-05-28T15:27:22.846Z,25.30
2019-05-28T15:28:22.741Z,25.35
2019-05-28T15:29:22.829Z,25.39
2019-05-28T15:30:22.830Z,25.42
2019-05-28T15:31:22.886Z,25.36
2019-05-28T15:32:22.872Z,25.33
2019-05-28T15:33:22.782Z,25.45
2019-05-28T15:34:22.792Z,25.33
2019-05-28T15:35:22.792Z,25.47
2019-05-28T15:36:22.746Z,25.50
2019-05-28T15:37:22.804Z,25.43
2019-05-28T15:38:22.767Z,25.43
2019-05-28T15:39:38.505Z,25.47
2019-05-28T15:40:23.562Z,25.50
2019-05-28T15:41:22.722Z,25.47
2019-05-28T15:42:22.705Z,25.51
2019-05-28T15:43:22.629Z,25.47
2019-05-28T15:44:22.639Z,25.47
2019-05-28T15:45:22.720Z,25.55
2019-05-28T15:46:22.720Z,25.52
2019-05-28T15:47:22.715Z,25.54
2019-05-28T15:48:22.687Z,25.52
2019-05-28T15:49:22.683Z,25.61
2019-05-28T15:50:22.646Z,25.58
2019-05-28T15:51:22.796Z,25.60
2019-05-28T15:52:22.695Z,25.58
2019-05-28T15:53:22.594Z,25.60
2019-05-28T15:54:22.662Z,25.58
2019-05-28T15:55:22.645Z,25.55
2019-05-28T15:56:22.597Z,25.58
2019-05-28T15:57:22.676Z,25.54
2019-05-28T15:58:22.685Z,25.65
2019-05-28T15:59:22.662Z,25.60
2019-05-28T16:00:22.645Z,25.64
2019-05-28T16:01:22.521Z,25.61
2019-05-28T16:02:22.551Z,25.61
2019-05-28T16:03:22.609Z,25.64
2019-05-28T16:04:22.523Z,25.67
2019-05-28T16:05:22.579Z,25.61
2019-05-28T16:06:22.545Z,25.64
2019-05-28T16:07:22.558Z,25.61
2019-05-28T16:08:22.475Z,25.67
2019-05-28T16:09:22.537Z,25.70
2019-05-28T16:10:22.569Z,25.62
2019-05-28T16:11:22.543Z,25.70
2019-05-28T16:12:22.512Z,25.73
2019-05-28T16:13:22.456Z,25.72
2019-05-28T16:14:22.518Z,25.69
2019-05-28T16:15:22.509Z,25.72
2019-05-28T16:16:22.496Z,25.73
2019-05-28T16:17:22.418Z,25.75
2019-05-28T16:18:22.510Z,25.67
2019-05-28T16:19:22.374Z,25.64
2019-05-28T16:20:22.453Z,25.67
2019-05-28T16:21:22.456Z,25.73
2019-05-28T16:22:22.537Z,25.64
2019-05-28T16:23:22.440Z,25.72
2019-05-28T16:24:22.389Z,25.70
2019-05-28T16:25:22.416Z,25.64
2019-05-28T16:26:22.502Z,25.72
2019-05-28T16:27:22.482Z,25.77
2019-05-28T16:28:22.421Z,25.73
2019-05-28T16:29:22.563Z,25.76
2019-05-28T16:30:22.417Z,25.79
2019-05-28T16:31:22.401Z,25.69
2019-05-28T16:32:27.835Z,25.67
2019-05-28T16:33:23.290Z,25.69
2019-05-28T16:34:22.360Z,25.70
2019-05-28T16:35:22.389Z,25.64
2019-05-28T16:36:22.259Z,25.67
2019-05-28T16:37:22.363Z,25.70
2019-05-28T16:38:22.370Z,25.76
2019-05-28T16:39:22.345Z,25.67
2019-05-28T16:40:22.261Z,25.79
2019-05-28T16:41:22.333Z,25.79
2019-05-28T16:42:22.299Z,25.79
2019-05-28T16:43:22.326Z,25.79
2019-05-28T16:44:22.309Z,25.77
2019-05-28T16:45:22.247Z,25.73
2019-05-28T16:46:22.310Z,25.67
2019-05-28T16:47:22.277Z,25.67
2019-05-28T16:48:22.316Z,25.80
2019-05-28T16:49:22.258Z,25.82
2019-05-28T16:50:22.256Z,25.75
2019-05-28T16:51:22.173Z,25.76
2019-05-28T16:52:22.263Z,25.85
2019-05-28T16:53:22.317Z,25.77
2019-05-28T16:54:22.222Z,25.72
2019-05-28T16:55:22.228Z,25.67
2019-05-28T16:56:22.247Z,25.75
2019-05-28T16:57:22.143Z,25.79
2019-05-28T16:58:22.244Z,25.82
2019-05-28T16:59:22.151Z,25.65
2019-05-28T17:00:22.206Z,25.67
2019-05-28T17:01:23.231Z,25.72
2019-05-28T17:02:22.103Z,25.60
2019-05-28T17:03:22.131Z,25.65
2019-05-28T17:04:22.158Z,25.69
2019-05-28T17:05:22.187Z,25.67
2019-05-28T17:06:22.080Z,25.62
2019-05-28T17:07:22.143Z,25.62
2019-05-28T17:08:22.222Z,25.65
2019-05-28T17:09:22.164Z,25.69
2019-05-28T17:10:32.493Z,25.64
2019-05-28T17:11:27.353Z,25.65
2019-05-28T17:12:23.051Z,25.60
2019-05-28T17:13:22.150Z,25.65
2019-05-28T17:14:26.755Z,25.62
2019-05-28T17:15:23.126Z,25.64
2019-05-28T17:16:22.096Z,25.61
2019-05-28T17:17:22.093Z,25.61
2019-05-28T17:18:22.025Z,25.55
2019-05-28T17:19:22.096Z,25.61
2019-05-28T17:20:22.068Z,25.57
2019-05-28T17:21:23.191Z,25.60
2019-05-28T17:22:22.050Z,25.64
2019-05-28T17:23:22.075Z,25.62
2019-05-28T17:24:22.050Z,25.58
2019-05-28T17:25:22.046Z,25.62
2019-05-28T17:26:22.046Z,25.58
2019-05-28T17:27:22.040Z,25.60
2019-05-28T17:28:22.030Z,25.62
2019-05-28T17:29:22.050Z,25.52
2019-05-28T17:30:24.187Z,25.55
2019-05-28T17:31:22.068Z,25.54
2019-05-28T17:32:21.962Z,25.52
2019-05-28T17:33:21.913Z,25.61
2019-05-28T17:34:21.935Z,25.54
2019-05-28T17:35:22.003Z,25.58
2019-05-28T17:36:21.964Z,25.64
2019-05-28T17:37:21.960Z,25.57
2019-05-28T17:38:21.935Z,25.61
2019-05-28T17:39:21.857Z,25.60
2019-05-28T17:40:22.371Z,25.58
2019-05-28T17:41:21.915Z,25.61
2019-05-28T17:42:21.920Z,25.64
2019-05-28T17:43:21.921Z,25.61
2019-05-28T17:44:21.926Z,25.64
2019-05-28T17:45:21.981Z,25.62
2019-05-28T17:46:21.787Z,25.61
2019-05-28T17:47:21.854Z,25.61
2019-05-28T17:48:21.881Z,25.58
2019-05-28T17:49:21.889Z,25.62
2019-05-28T17:50:21.845Z,25.60
2019-05-28T17:51:21.737Z,25.60
2019-05-28T17:52:21.770Z,25.60
2019-05-28T17:53:21.839Z,25.61
2019-05-28T17:54:21.902Z,25.62
2019-05-28T17:55:22.112Z,25.60
2019-05-28T17:56:21.772Z,25.62
2019-05-28T17:57:21.807Z,25.58
2019-05-28T17:58:21.782Z,25.61
2019-05-28T17:59:21.799Z,25.61
2019-05-28T18:00:21.774Z,25.60
2019-05-28T18:01:21.751Z,25.61
2019-05-28T18:02:21.799Z,25.57
2019-05-28T18:03:21.676Z,25.61
2019-05-28T18:04:21.756Z,25.60
2019-05-28T18:05:21.670Z,25.64
2019-05-28T18:06:21.710Z,25.62
2019-05-28T18:07:21.687Z,25.62
2019-05-28T18:08:21.712Z,25.57
2019-05-28T18:09:21.665Z,25.61
2019-05-28T18:10:21.695Z,25.57
2019-05-28T18:11:21.662Z,25.62
2019-05-28T18:12:21.611Z,25.61
2019-05-28T18:13:21.713Z,25.55
2019-05-28T18:14:23.789Z,25.64
2019-05-28T18:15:21.569Z,25.55
2019-05-28T18:16:21.661Z,25.60
2019-05-28T18:17:21.696Z,25.55
2019-05-28T18:18:21.633Z,25.57
2019-05-28T18:19:21.655Z,25.51
2019-05-28T18:20:21.625Z,25.52
2019-05-28T18:21:21.625Z,25.52
2019-05-28T18:22:21.656Z,25.57
2019-05-28T18:23:21.618Z,25.45
2019-05-28T18:24:21.574Z,25.52
2019-05-28T18:25:21.758Z,25.51
2019-05-28T18:26:21.580Z,25.51
2019-05-28T18:27:21.635Z,25.51
2019-05-28T18:28:21.603Z,25.47
2019-05-28T18:29:21.584Z,25.47
2019-05-28T18:30:21.572Z,25.50
2019-05-28T18:31:21.558Z,25.45
2019-05-28T18:32:21.506Z,25.38
2019-05-28T18:33:21.464Z,25.47
2019-05-28T18:34:21.557Z,25.47
2019-05-28T18:35:21.552Z,25.45
2019-05-28T18:36:21.483Z,25.35
2019-05-28T18:37:21.507Z,25.36
2019-05-28T18:38:21.514Z,25.43
2019-05-28T18:39:25.306Z,25.43
2019-05-28T18:40:21.537Z,25.45
2019-05-28T18:41:22.217Z,25.50
2019-05-28T18:42:21.494Z,25.47
2019-05-28T18:43:21.397Z,25.39
2019-05-28T18:44:21.299Z,25.35
2019-05-28T18:45:21.592Z,25.40
2019-05-28T18:46:21.459Z,25.40
2019-05-28T18:47:21.446Z,25.39
2019-05-28T18:48:21.448Z,25.43
2019-05-28T18:49:21.432Z,25.30
2019-05-28T18:50:21.469Z,25.42
2019-05-28T18:51:21.439Z,25.36
2019-05-28T18:52:21.419Z,25.36
2019-05-28T18:53:21.422Z,25.39
2019-05-28T18:54:21.336Z,25.30
2019-05-28T18:55:23.530Z,25.46
2019-05-28T18:56:21.405Z,25.35
2019-05-28T18:57:21.309Z,25.33
2019-05-28T18:58:21.536Z,25.30
2019-05-28T18:59:21.464Z,25.36
2019-05-28T19:00:21.404Z,25.35
2019-05-28T19:01:21.359Z,25.32
2019-05-28T19:02:21.311Z,25.33
2019-05-28T19:03:21.361Z,25.38
2019-05-28T19:04:21.288Z,25.36
2019-05-28T19:05:21.298Z,25.33
2019-05-28T19:06:21.353Z,25.32
2019-05-28T19:07:21.370Z,25.32
2019-05-28T19:08:21.257Z,25.30
2019-05-28T19:09:21.311Z,25.27
2019-05-28T19:10:21.330Z,25.24
2019-05-28T19:11:34.898Z,25.30
2019-05-28T19:12:22.287Z,25.33
2019-05-28T19:13:21.279Z,25.33
2019-05-28T19:14:21.270Z,25.38
2019-05-28T19:15:21.282Z,25.30
2019-05-28T19:16:21.236Z,25.33
2019-05-28T19:17:21.251Z,25.35
2019-05-28T19:18:21.158Z,25.24
2019-05-28T19:19:21.231Z,25.32
2019-05-28T19:20:21.241Z,25.33
2019-05-28T19:21:21.245Z,25.23
2019-05-28T19:22:21.240Z,25.35
2019-05-28T19:23:21.235Z,25.30
2019-05-28T19:24:21.228Z,25.27
2019-05-28T19:25:21.237Z,25.28
2019-05-28T19:26:21.151Z,25.23
2019-05-28T19:27:21.202Z,25.21
2019-05-28T19:28:21.189Z,25.25
2019-05-28T19:29:21.194Z,25.28
2019-05-28T19:30:21.227Z,25.24
2019-05-28T19:31:21.230Z,25.30
2019-05-28T19:32:21.163Z,25.25
2019-05-28T19:33:21.170Z,25.27
2019-05-28T19:34:21.123Z,25.17
2019-05-28T19:35:21.085Z,25.25
2019-05-28T19:36:21.188Z,25.25
2019-05-28T19:37:21.118Z,25.33
2019-05-28T19:38:21.208Z,25.21
2019-05-28T19:39:22.070Z,25.25
2019-05-28T19:40:21.148Z,25.21
2019-05-28T19:41:21.172Z,25.25
2019-05-28T19:42:21.050Z,25.18
2019-05-28T19:43:21.126Z,25.23
2019-05-28T19:44:21.106Z,25.21
2019-05-28T19:45:21.130Z,25.20
2019-05-28T19:46:21.086Z,25.23
2019-05-28T19:47:21.104Z,25.13
2019-05-28T19:48:21.070Z,25.24
2019-05-28T19:49:21.016Z,25.24
2019-05-28T19:50:21.098Z,25.21
2019-05-28T19:51:21.016Z,25.21
2019-05-28T19:52:21.074Z,25.17
2019-05-28T19:53:21.032Z,25.17
2019-05-28T19:54:20.976Z,25.21
2019-05-28T19:55:21.080Z,25.14
2019-05-28T19:56:20.989Z,25.21
2019-05-28T19:57:21.042Z,25.15
2019-05-28T19:58:21.048Z,25.15
2019-05-28T19:59:21.033Z,25.15
2019-05-28T20:00:21.021Z,25.18
2019-05-28T20:01:21.004Z,25.24
2019-05-28T20:02:21.011Z,25.23
2019-05-28T20:03:21.009Z,25.15
2019-05-28T20:04:20.925Z,25.10
2019-05-28T20:05:20.980Z,25.10
2019-05-28T20:06:20.926Z,25.09
2019-05-28T20:07:20.968Z,25.09
2019-05-28T20:08:20.953Z,25.18
2019-05-28T20:09:20.955Z,25.10
2019-05-28T20:10:20.906Z,25.10
2019-05-28T20:11:20.963Z,25.18
2019-05-28T20:12:20.924Z,25.09
2019-05-28T20:13:20.827Z,25.06
2019-05-28T20:14:20.835Z,25.14
2019-05-28T20:15:22.904Z,25.13
2019-05-28T20:16:20.947Z,25.06
2019-05-28T20:17:20.913Z,25.24
2019-05-28T20:18:26.832Z,25.06
2019-05-28T20:19:21.905Z,25.09
2019-05-28T20:20:20.798Z,25.10
2019-05-28T20:21:20.895Z,25.13
2019-05-28T20:22:20.868Z,25.06
2019-05-28T20:23:20.852Z,25.08
2019-05-28T20:24:20.810Z,25.14
2019-05-28T20:25:20.748Z,25.14
2019-05-28T20:26:20.840Z,25.13
2019-05-28T20:27:20.765Z,25.18
2019-05-28T20:28:20.848Z,25.06
2019-05-28T20:29:21.809Z,25.14
2019-05-28T20:30:20.814Z,25.08
2019-05-28T20:31:20.789Z,25.10
2019-05-28T20:32:20.846Z,25.08
2019-05-28T20:33:20.800Z,25.08
2019-05-28T20:34:20.792Z,25.09
2019-05-28T20:35:20.768Z,25.13
2019-05-28T20:36:20.778Z,25.09
2019-05-28T20:37:20.774Z,25.03
2019-05-28T20:38:20.686Z,24.99
2019-05-28T20:39:20.676Z,25.10
2019-05-28T20:40:20.654Z,25.10
2019-05-28T20:41:20.738Z,25.08
2019-05-28T20:42:27.191Z,25.10
2019-05-28T20:43:21.706Z,25.13
2019-05-28T20:44:21.544Z,25.03
2019-05-28T20:45:20.696Z,25.10
2019-05-28T20:46:20.595Z,25.08
2019-05-28T20:47:20.765Z,25.10
2019-05-28T20:48:20.688Z,25.10
2019-05-28T20:49:20.666Z,25.17
2019-05-28T20:50:20.659Z,25.05
2019-05-28T20:51:22.098Z,25.03
2019-05-28T20:52:20.592Z,25.14
2019-05-28T20:53:35.197Z,25.10
2019-05-28T20:54:21.658Z,25.06
2019-05-28T20:55:20.631Z,25.17
2019-05-28T20:56:20.595Z,25.00
2019-05-28T20:57:20.611Z,24.96
2019-05-28T20:58:20.532Z,25.03
2019-05-28T20:59:20.622Z,25.09
2019-05-28T21:00:20.610Z,24.98
2019-05-28T21:01:20.604Z,25.08
2019-05-28T21:02:20.581Z,25.10
2019-05-28T21:03:20.620Z,25.03
2019-05-28T21:04:20.561Z,25.06
2019-05-28T21:05:20.583Z,25.09
2019-05-28T21:06:20.578Z,25.09
2019-05-28T21:07:20.567Z,25.06
2019-05-28T21:08:20.553Z,25.05
2019-05-28T21:09:20.554Z,25.03
2019-05-28T21:10:20.572Z,25.02
2019-05-28T21:11:20.436Z,24.99
2019-05-28T21:12:20.559Z,25.06
2019-05-28T21:13:20.527Z,24.96
2019-05-28T21:14:20.581Z,25.03
2019-05-28T21:15:20.504Z,25.03
2019-05-28T21:16:20.538Z,24.99
2019-05-28T21:17:20.509Z,25.05
2019-05-28T21:18:20.583Z,24.98
2019-05-28T21:19:20.521Z,25.03
2019-05-28T21:20:20.497Z,25.00
2019-05-28T21:21:20.417Z,25.02
2019-05-28T21:22:26.831Z,25.00
2019-05-28T21:23:21.442Z,24.98
2019-05-28T21:24:20.483Z,24.99
2019-05-28T21:25:20.480Z,24.98
2019-05-28T21:26:20.477Z,25.02
2019-05-28T21:27:20.477Z,24.99
2019-05-28T21:28:20.477Z,25.05
2019-05-28T21:29:20.440Z,25.10
2019-05-28T21:30:20.383Z,24.99
2019-05-28T21:31:20.409Z,24.96
2019-05-28T21:32:20.446Z,25.06
2019-05-28T21:33:20.441Z,25.06
2019-05-28T21:34:20.377Z,24.99
2019-05-28T21:35:20.317Z,25.03
2019-05-28T21:36:20.393Z,25.02
2019-05-28T21:37:20.408Z,24.93
2019-05-28T21:38:20.397Z,24.99
2019-05-28T21:39:20.333Z,24.99
2019-05-28T21:40:20.380Z,25.02
2019-05-28T21:41:20.421Z,24.96
2019-05-28T21:42:20.262Z,24.99
2019-05-28T21:43:20.379Z,24.99
2019-05-28T21:44:20.352Z,25.02
2019-05-28T21:45:20.233Z,25.03
2019-05-28T21:46:20.243Z,25.00
2019-05-28T21:47:20.321Z,24.93
2019-05-28T21:48:20.321Z,24.98
2019-05-28T21:49:23.508Z,24.95
2019-05-28T21:50:20.305Z,24.99
2019-05-28T21:51:20.271Z,24.98
2019-05-28T21:52:20.291Z,24.98
2019-05-28T21:53:20.310Z,24.90
2019-05-28T21:54:20.292Z,24.93
2019-05-28T21:55:20.190Z,24.90
2019-05-28T21:56:20.197Z,24.91
2019-05-28T21:57:20.258Z,24.98
2019-05-28T21:58:20.266Z,24.88
2019-05-28T21:59:20.243Z,24.90
2019-05-28T22:00:20.258Z,24.93
2019-05-28T22:01:20.228Z,24.87
2019-05-28T22:02:20.227Z,24.90
2019-05-28T22:03:20.149Z,24.91
2019-05-28T22:04:20.262Z,24.91
2019-05-28T22:05:20.209Z,24.88
2019-05-28T22:06:20.189Z,24.90
2019-05-28T22:07:20.105Z,24.96
2019-05-28T22:08:20.178Z,24.98
2019-05-28T22:09:20.105Z,25.00
2019-05-28T22:10:20.145Z,25.00
2019-05-28T22:11:20.159Z,24.95
2019-05-28T22:12:20.149Z,24.90
2019-05-28T22:13:22.610Z,24.90
2019-05-28T22:14:20.113Z,24.95
2019-05-28T22:15:20.148Z,24.96
2019-05-28T22:16:20.044Z,24.91
2019-05-28T22:17:20.124Z,24.95
2019-05-28T22:18:20.120Z,24.96
2019-05-28T22:19:20.089Z,24.99
2019-05-28T22:20:20.092Z,24.91
2019-05-28T22:21:20.082Z,24.88
2019-05-28T22:22:20.092Z,24.88
2019-05-28T22:23:20.010Z,24.96
2019-05-28T22:24:20.098Z,24.93
2019-05-28T22:25:20.053Z,24.87
2019-05-28T22:26:19.952Z,24.93
2019-05-28T22:27:20.112Z,24.85
2019-05-28T22:28:19.961Z,24.93
2019-05-28T22:29:20.034Z,24.93
2019-05-28T22:30:20.020Z,24.99
2019-05-28T22:31:20.028Z,24.98
2019-05-28T22:32:20.011Z,24.88
2019-05-28T22:33:19.987Z,24.90
2019-05-28T22:34:19.952Z,24.91
2019-05-28T22:35:19.990Z,24.95
2019-05-28T22:36:19.972Z,24.87
2019-05-28T22:37:19.962Z,24.93
2019-05-28T22:38:19.898Z,24.93
2019-05-28T22:39:19.968Z,24.90
2019-05-28T22:40:19.851Z,24.95
2019-05-28T22:41:19.936Z,24.93
2019-05-28T22:42:19.933Z,24.88
2019-05-28T22:43:31.163Z,24.93
2019-05-28T22:44:20.889Z,24.87
2019-05-28T22:45:19.914Z,24.81
2019-05-28T22:46:19.926Z,24.88
2019-05-28T22:47:19.902Z,24.88
2019-05-28T22:48:19.868Z,24.95
2019-05-28T22:49:19.708Z,24.85
2019-05-28T22:50:22.803Z,24.96
2019-05-28T22:51:19.789Z,24.87
2019-05-28T22:52:19.863Z,24.83
2019-05-28T22:53:19.847Z,24.83
2019-05-28T22:54:19.887Z,24.76
2019-05-28T22:55:19.744Z,24.78
2019-05-28T22:56:19.802Z,24.85
2019-05-28T22:57:19.814Z,24.90
2019-05-28T22:58:19.822Z,24.80
2019-05-28T22:59:20.631Z,24.87
2019-05-28T23:00:19.714Z,24.78
2019-05-28T23:01:19.803Z,24.84
2019-05-28T23:02:19.735Z,24.83
2019-05-28T23:03:19.782Z,24.83
2019-05-28T23:04:19.714Z,24.83
2019-05-28T23:05:19.776Z,24.96
2019-05-28T23:06:19.757Z,24.77
2019-05-28T23:07:19.720Z,24.80
2019-05-28T23:08:19.646Z,24.81
2019-05-28T23:09:19.778Z,24.78
2019-05-28T23:10:19.743Z,24.80
2019-05-28T23:11:19.738Z,24.84
2019-05-28T23:12:19.617Z,24.81
2019-05-28T23:13:19.620Z,24.84
2019-05-28T23:14:19.627Z,24.80
2019-05-28T23:15:19.619Z,24.80
2019-05-28T23:16:19.668Z,24.81
2019-05-28T23:17:19.672Z,24.83
2019-05-28T23:18:19.653Z,24.93
2019-05-28T23:19:19.654Z,24.83
2019-05-28T23:20:19.617Z,24.81
2019-05-28T23:21:19.552Z,24.80
2019-05-28T23:22:19.566Z,24.83
2019-05-28T23:23:19.626Z,24.78
2019-05-28T23:24:19.594Z,24.76
2019-05-28T23:25:19.562Z,24.88
2019-05-28T23:26:19.612Z,24.85
2019-05-28T23:27:19.591Z,24.81
2019-05-28T23:28:19.607Z,24.84
2019-05-28T23:29:19.487Z,24.78
2019-05-28T23:30:24.615Z,24.81
2019-05-28T23:31:20.553Z,24.80
2019-05-28T23:32:19.527Z,24.83
2019-05-28T23:33:19.545Z,24.69
2019-05-28T23:34:19.533Z,24.80
2019-05-28T23:35:19.580Z,24.78
2019-05-28T23:36:19.487Z,24.76
2019-05-28T23:37:19.505Z,24.78
2019-05-28T23:38:19.514Z,24.80
2019-05-28T23:39:19.533Z,24.77
2019-05-28T23:40:19.540Z,24.78
2019-05-28T23:41:19.499Z,24.83
2019-05-28T23:42:19.483Z,24.88
2019-05-28T23:43:19.415Z,24.80
2019-05-28T23:44:19.414Z,24.77
2019-05-28T23:45:19.483Z,24.80
2019-05-28T23:46:19.465Z,24.80
2019-05-28T23:47:19.502Z,24.78
2019-05-28T23:48:19.493Z,24.85
2019-05-28T23:49:19.452Z,24.85
2019-05-28T23:50:19.463Z,24.71
2019-05-28T23:51:19.509Z,24.76
2019-05-28T23:52:19.463Z,24.80
2019-05-28T23:53:19.463Z,24.84
2019-05-28T23:54:19.419Z,24.77
2019-05-28T23:55:19.352Z,24.71
2019-05-28T23:56:19.448Z,24.73
2019-05-28T23:57:19.418Z,24.76
2019-05-28T23:58:19.404Z,24.81
2019-05-28T23:59:19.461Z,24.73
